Springfield, MN

4:51 PM CDT on October 20, 2014 (GMT -0500)
Ryan Farms | Change Station
CLOSE
Current Station
Personal Weather Station
Location: Springfield, MN
Elevation: 1076 ft
Nearby Weather Stations

Elev 1076 ft 44.27 °N, 95.08 °W | Updated 5 seconds ago

Clear
Clear
69.3 °F
Feels Like 69.3 °F
N
3.0
Wind Variable Wind from SSW
Gusts 4.0 mph

Today
High -- | Low -- °F
--% Chance of Precip.
Yesterday
High -- | Low -- °F
Precip. -- in
7:41 AM 6:27 PM
Waning Crescent, 9% visible
Pressure 30.02 in
Visibility 10.0 miles
Clouds Clear
Dew Point 44 °F
Humidity 40%
Rainfall 0.00 in
Snow Depth Not available.
UV 2 out of 12
Pollen 1.70 out of 12
Air Quality Not available.
Flu Activity Sporadic
METAR KRWF 202053Z AUTO 33011G16KT 10SM CLR 20/04 A3001 RMK AO2 SLP164 T02000039 57006

More Conditions Fewer Conditions

Pressure 30.02 in
Visibility 10.0 miles
Clouds Clear
Dew Point 44 °F
Humidity 40%
Rainfall 0.00 in
Snow Depth Not available.
UV 2 out of 12
Pollen 1.70 out of 12
Air Quality Not available.
Flu Activity Sporadic
METAR KRWF 202053Z AUTO 33011G16KT 10SM CLR 20/04 A3001 RMK AO2 SLP164 T02000039 57006

More Conditions Fewer Conditions

10-Day Weather Forecast

Almanac

Astronomy

Oct. 20, 2014 Rise Set
Actual Time 7:41 AM CDT 6:27 PM CDT
Civil Twilight 7:11 AM CDT 6:56 PM CDT
Nautical Twilight 6:37 AM CDT 7:30 PM CDT
Astronomical Twilight 6:04 AM CDT 8:04 PM CDT
Moon 4:23 AM CDT 4:56 PM CDT
Length of Visible Light 11h 45m
Length of Day
10h 46m
Waning Crescent, 9% of the Moon is Illuminated
Today
Waning Crescent
Oct 23
New
Oct 30
First Quarter
Nov 6
Full
Nov 14
Last Quarter

Today's Extremes

State Highs State Lows

Community

WunderPhotos

Upload Photos

1,763,527 photos uploaded!

WunderBlogs® & News

Nearby

Snow Depth

Station Depth Elevation
No new snow has been reported.

Earthquake Activity

City Distance Mag. Time & Date
No recent earthquake activity has been reported nearby.
Minimum magnitude displayed is 2.5.

Coastal Water Temperatures

Place Temperature
No Stations Reporting

Nearby Weather Stations